createdAt,value
2022-10-18T00:02:03.896Z,100
2022-10-18T00:12:04.116Z,100
2022-10-18T00:22:04.318Z,100
2022-10-18T00:32:04.570Z,100
2022-10-18T00:42:05.510Z,100
2022-10-18T00:52:06.508Z,100
2022-10-18T01:02:07.270Z,100
2022-10-18T01:12:08.168Z,100
2022-10-18T01:22:08.877Z,100
2022-10-18T01:32:09.803Z,100
2022-10-18T01:42:10.890Z,100
2022-10-18T01:52:11.712Z,100
2022-10-18T02:02:12.227Z,100
2022-10-18T02:12:12.302Z,100
2022-10-18T02:22:13.201Z,100
2022-10-18T02:32:13.531Z,100
2022-10-18T02:42:14.165Z,100
2022-10-18T03:02:15.049Z,100
2022-10-18T03:12:15.732Z,100
2022-10-18T03:22:16.505Z,100
2022-10-18T03:32:17.012Z,100
2022-10-18T03:42:17.536Z,100
2022-10-18T03:52:18.522Z,100
2022-10-18T04:12:19.168Z,100
2022-10-18T04:22:20.379Z,100
2022-10-18T05:17:52.088Z,100
2022-10-18T05:27:52.945Z,100
2022-10-18T05:37:53.750Z,100
2022-10-18T05:47:53.963Z,100
2022-10-18T06:07:54.931Z,100
2022-10-18T06:17:55.441Z,100
2022-10-18T06:27:55.915Z,100
2022-10-18T06:37:56.452Z,100
2022-10-18T06:47:56.589Z,100
2022-10-18T06:57:57.630Z,100
2022-10-18T07:07:58.328Z,100
2022-10-18T07:17:58.753Z,100
2022-10-18T07:27:59.593Z,100
2022-10-18T07:58:00.355Z,100
2022-10-18T08:18:00.992Z,100
2022-10-18T08:28:01.758Z,100
2022-10-18T08:38:02.232Z,100
2022-10-18T09:08:04.117Z,100
2022-10-18T09:28:05.095Z,100
2022-10-18T09:58:08.050Z,96
2022-10-18T10:18:09.295Z,91
2022-10-18T10:28:09.360Z,91
2022-10-18T10:38:09.578Z,92
2022-10-18T10:48:10.297Z,90
2022-10-18T10:58:11.110Z,88
2022-10-18T11:08:11.935Z,90
2022-10-18T11:18:12.997Z,87
2022-10-18T11:28:13.282Z,87
2022-10-18T11:48:14.204Z,86
2022-10-18T11:58:15.158Z,84
2022-10-18T12:18:16.337Z,83
2022-10-18T12:28:16.793Z,80
2022-10-18T12:38:17.810Z,79
2022-10-18T13:18:19.512Z,73
2022-10-18T13:28:20.523Z,74
2022-10-18T13:48:22.359Z,72
2022-10-18T13:58:22.866Z,71
2022-10-18T14:08:23.274Z,73
2022-10-18T14:28:31.613Z,72
2022-10-18T14:48:25.833Z,72
2022-10-18T15:18:27.663Z,73
2022-10-18T15:28:28.325Z,74
2022-10-18T15:38:28.993Z,76
2022-10-18T15:58:29.504Z,79
2022-10-18T16:08:30.445Z,81
2022-10-18T16:18:30.944Z,84
2022-10-18T16:28:31.737Z,86
2022-10-18T16:58:32.452Z,92
2022-10-18T17:08:33.046Z,92
2022-10-18T17:18:33.756Z,91
2022-10-18T17:28:34.100Z,90
2022-10-18T17:38:34.333Z,90
2022-10-18T17:48:35.172Z,90
2022-10-18T17:58:35.692Z,92
2022-10-18T18:18:36.391Z,94
2022-10-18T18:38:37.351Z,97
2022-10-18T18:48:38.233Z,98
2022-10-18T18:58:38.528Z,98
2022-10-18T19:08:38.648Z,98
2022-10-18T19:48:41.611Z,98
2022-10-18T20:18:44.186Z,97
2022-10-18T20:28:45.050Z,97
2022-10-18T20:38:45.372Z,97
2022-10-18T20:48:45.595Z,98
2022-10-18T20:58:46.187Z,100
2022-10-18T21:08:46.673Z,100
2022-10-18T21:18:47.585Z,100
2022-10-18T21:38:49.060Z,100
2022-10-18T21:58:50.219Z,100
2022-10-18T22:08:50.687Z,100
2022-10-18T22:18:51.071Z,100
2022-10-18T22:28:51.887Z,100
2022-10-18T22:38:52.055Z,100
2022-10-18T22:48:52.466Z,100
2022-10-18T22:58:53.044Z,100
2022-10-18T23:18:54.040Z,100
2022-10-18T23:28:54.731Z,100
2022-10-18T23:38:55.071Z,100
2022-10-18T23:58:56.258Z,100
